createdAt,value
2022-09-07T00:01:07.397Z,15.20
2022-09-07T00:03:35.329Z,15.20
2022-09-07T00:06:10.913Z,15.30
2022-09-07T00:08:40.449Z,15.30
2022-09-07T00:11:15.137Z,15.30
2022-09-07T00:13:45.544Z,15.20
2022-09-07T00:16:18.811Z,15.20
2022-09-07T00:18:46.625Z,15.20
2022-09-07T00:21:17.672Z,15.20
2022-09-07T00:23:48.286Z,15.20
2022-09-07T00:26:21.178Z,15.20
2022-09-07T00:28:50.046Z,15.10
2022-09-07T00:31:23.021Z,15.10
2022-09-07T00:33:53.313Z,15.10
2022-09-07T00:36:23.061Z,15.10
2022-09-07T00:38:51.155Z,15.00
2022-09-07T00:41:21.416Z,14.90
2022-09-07T00:43:59.589Z,14.90
2022-09-07T00:46:34.115Z,14.90
2022-09-07T00:49:15.341Z,14.90
2022-09-07T00:52:02.696Z,14.90
2022-09-07T00:54:47.081Z,14.90
2022-09-07T00:57:15.037Z,15.00
2022-09-07T00:59:50.841Z,15.00
2022-09-07T01:02:20.147Z,15.00
2022-09-07T01:04:53.418Z,15.10
2022-09-07T01:07:20.667Z,15.10
2022-09-07T01:09:48.165Z,15.10
2022-09-07T01:12:15.141Z,15.00
2022-09-07T01:14:51.562Z,14.90
2022-09-07T01:17:33.074Z,14.90
2022-09-07T01:20:54.058Z,14.90
2022-09-07T01:23:53.474Z,14.90
2022-09-07T01:27:04.135Z,14.70
2022-09-07T01:29:50.960Z,14.60
2022-09-07T01:33:04.490Z,14.50
2022-09-07T01:36:06.839Z,14.50
2022-09-07T01:38:53.898Z,14.60
2022-09-07T01:41:49.134Z,14.70
2022-09-07T01:44:34.182Z,14.70
2022-09-07T01:47:37.014Z,14.70
2022-09-07T01:50:21.049Z,14.60
2022-09-07T01:53:00.183Z,14.60
2022-09-07T01:56:07.863Z,14.50
2022-09-07T01:58:47.936Z,14.50
2022-09-07T02:01:35.643Z,14.60
2022-09-07T02:04:17.219Z,14.60
2022-09-07T02:07:09.755Z,14.60
2022-09-07T02:10:10.255Z,14.70
2022-09-07T02:12:55.435Z,14.70
2022-09-07T02:15:51.786Z,14.80
2022-09-07T02:18:25.739Z,14.90
2022-09-07T02:20:59.332Z,14.90
2022-09-07T02:23:37.411Z,15.00
2022-09-07T02:26:12.823Z,15.10
2022-09-07T02:28:40.621Z,15.20
2022-09-07T02:31:08.245Z,15.20
2022-09-07T02:33:35.667Z,15.30
2022-09-07T02:36:05.093Z,15.30
2022-09-07T02:38:35.031Z,15.30
2022-09-07T02:41:04.368Z,15.20
2022-09-07T02:43:33.222Z,15.20
2022-09-07T02:46:58.310Z,15.20
2022-09-07T02:50:16.244Z,15.20
2022-09-07T02:53:28.358Z,15.20
2022-09-07T02:56:50.910Z,15.20
2022-09-07T03:00:10.648Z,15.20
2022-09-07T03:03:21.311Z,15.20
2022-09-07T03:06:09.628Z,15.20
2022-09-07T03:08:49.096Z,15.30
2022-09-07T03:11:17.738Z,15.40
2022-09-07T03:13:44.900Z,15.40
2022-09-07T03:16:16.177Z,15.50
2022-09-07T03:18:44.424Z,15.60
2022-09-07T03:21:11.599Z,15.70
2022-09-07T03:23:38.791Z,15.80
2022-09-07T03:26:06.184Z,15.90
2022-09-07T03:28:33.167Z,16.00
2022-09-07T03:31:02.788Z,16.00
2022-09-07T03:33:29.860Z,16.00
2022-09-07T03:36:02.285Z,16.10
2022-09-07T03:38:30.960Z,16.20
2022-09-07T03:41:06.944Z,16.20
2022-09-07T03:43:34.851Z,16.20
2022-09-07T03:46:07.080Z,16.20
2022-09-07T03:48:36.557Z,16.20
2022-09-07T03:51:10.632Z,16.20
2022-09-07T03:53:43.916Z,16.00
2022-09-07T03:56:22.981Z,15.90
2022-09-07T03:58:51.444Z,15.90
2022-09-07T04:01:26.164Z,15.80
2022-09-07T04:04:01.798Z,15.80
2022-09-07T04:06:30.822Z,15.70
2022-09-07T04:09:03.997Z,15.70
2022-09-07T04:11:31.953Z,15.70
2022-09-07T04:13:59.405Z,15.60
2022-09-07T04:16:28.172Z,15.60
2022-09-07T04:18:55.565Z,15.60
2022-09-07T04:21:24.367Z,15.60
2022-09-07T04:23:52.841Z,15.50
2022-09-07T04:26:24.313Z,15.40
2022-09-07T04:28:52.290Z,15.40
2022-09-07T04:31:21.025Z,15.30
2022-09-07T04:33:51.201Z,15.30
2022-09-07T04:36:20.612Z,15.30
2022-09-07T04:38:57.642Z,15.40
2022-09-07T04:41:26.039Z,15.50
2022-09-07T04:43:58.086Z,15.40
2022-09-07T04:46:35.418Z,15.40
2022-09-07T04:49:10.315Z,15.40
2022-09-07T04:51:42.462Z,15.30
2022-09-07T04:54:11.403Z,15.30
2022-09-07T04:56:38.506Z,15.30
2022-09-07T04:59:05.526Z,15.30
2022-09-07T05:01:32.645Z,15.30
2022-09-07T05:04:02.199Z,15.40
2022-09-07T05:06:29.590Z,15.40
2022-09-07T05:08:58.643Z,15.60
2022-09-07T05:11:29.736Z,15.70
2022-09-07T05:14:03.367Z,15.80
2022-09-07T05:16:31.998Z,15.90
2022-09-07T05:19:04.594Z,16.10
2022-09-07T05:21:34.899Z,16.20
2022-09-07T05:24:04.078Z,16.40
2022-09-07T05:26:36.307Z,16.60
2022-09-07T05:31:53.359Z,16.90
2022-09-07T05:36:54.839Z,17.10
2022-09-07T05:39:21.789Z,17.30
2022-09-07T05:41:48.745Z,17.40
2022-09-07T05:47:02.761Z,17.80
2022-09-07T05:49:30.583Z,18.00
2022-09-07T05:51:57.493Z,18.10
2022-09-07T05:54:24.376Z,18.20
2022-09-07T05:56:51.364Z,18.30
2022-09-07T05:59:18.283Z,18.20
2022-09-07T06:01:45.247Z,18.10
2022-09-07T06:04:12.216Z,18.00
2022-09-07T06:06:39.094Z,17.90
2022-09-07T06:09:07.073Z,17.80
2022-09-07T06:11:34.145Z,17.80
2022-09-07T06:14:01.219Z,17.80
2022-09-07T06:16:28.840Z,18.10
2022-09-07T06:18:55.791Z,18.40
2022-09-07T06:21:24.541Z,18.80
2022-09-07T06:23:51.936Z,19.30
2022-09-07T06:26:19.805Z,19.50
2022-09-07T06:28:50.817Z,19.60
2022-09-07T06:31:23.605Z,19.80
2022-09-07T06:33:52.497Z,20.10
2022-09-07T06:36:27.643Z,20.40
2022-09-07T06:39:01.309Z,20.50
2022-09-07T06:44:17.853Z,21.10
2022-09-07T06:49:31.900Z,21.80
2022-09-07T06:51:58.849Z,22.00
2022-09-07T06:57:12.826Z,22.20
2022-09-07T06:59:39.861Z,22.40
2022-09-07T07:02:08.064Z,22.60
2022-09-07T07:04:40.318Z,22.60
2022-09-07T07:07:12.710Z,22.50
2022-09-07T07:09:41.509Z,22.40
2022-09-07T07:12:09.709Z,22.50
2022-09-07T07:14:38.678Z,22.50
2022-09-07T07:17:06.825Z,22.20
2022-09-07T07:19:33.809Z,21.20
2022-09-07T07:24:47.749Z,19.90
2022-09-07T07:27:14.874Z,19.60
2022-09-07T07:29:41.833Z,19.50
2022-09-07T07:32:08.774Z,19.40
2022-09-07T07:34:35.697Z,19.40
2022-09-07T07:37:02.591Z,19.20
2022-09-07T07:42:16.603Z,19.40
2022-09-07T07:44:43.654Z,19.40
2022-09-07T07:47:10.933Z,19.70
2022-09-07T07:49:37.819Z,20.70
2022-09-07T07:54:53.075Z,23.00
2022-09-07T07:57:20.290Z,23.60
2022-09-07T07:59:47.180Z,23.00
2022-09-07T08:03:46.126Z,22.80
2022-09-07T08:06:21.833Z,23.20
2022-09-07T08:08:48.886Z,23.60
2022-09-07T08:11:20.142Z,23.60
2022-09-07T08:13:50.434Z,24.70
2022-09-07T08:16:18.866Z,25.50
2022-09-07T08:18:47.111Z,26.00
2022-09-07T08:21:16.579Z,26.70
2022-09-07T08:23:43.996Z,27.40
2022-09-07T08:26:11.555Z,27.70
2022-09-07T08:28:43.756Z,27.70
2022-09-07T08:31:16.038Z,27.90
2022-09-07T08:33:43.844Z,28.20
2022-09-07T08:36:14.351Z,27.90
2022-09-07T08:38:41.791Z,27.10
2022-09-07T08:41:48.704Z,27.40
2022-09-07T08:44:44.119Z,27.90
2022-09-07T08:47:46.841Z,28.10
2022-09-07T08:51:04.419Z,28.80
2022-09-07T08:53:31.850Z,29.50
2022-09-07T08:56:10.129Z,30.30
2022-09-07T08:58:55.643Z,30.20
2022-09-07T09:01:37.658Z,30.70
2022-09-07T09:04:24.478Z,31.20
2022-09-07T09:07:25.307Z,31.70
2022-09-07T09:10:19.705Z,32.60
2022-09-07T09:13:18.207Z,32.90
2022-09-07T09:16:08.869Z,33.10
2022-09-07T09:19:18.336Z,34.30
2022-09-07T09:21:45.817Z,33.80
2022-09-07T09:24:19.992Z,33.90
2022-09-07T09:26:57.018Z,33.80
2022-09-07T09:29:24.304Z,33.90
2022-09-07T09:31:51.219Z,34.20
2022-09-07T09:34:23.917Z,33.80
2022-09-07T09:36:56.669Z,34.20
2022-09-07T09:39:37.432Z,34.50
2022-09-07T09:42:23.724Z,35.30
2022-09-07T09:44:51.576Z,36.00
2022-09-07T09:47:36.005Z,36.70
2022-09-07T09:53:52.725Z,35.50
2022-09-07T09:56:19.782Z,36.70
2022-09-07T10:01:35.988Z,37.10
2022-09-07T10:04:25.177Z,37.00
2022-09-07T10:07:21.889Z,36.40
2022-09-07T10:09:56.220Z,36.60
2022-09-07T10:12:29.833Z,36.50
2022-09-07T10:14:57.752Z,36.70
2022-09-07T10:17:49.641Z,36.40
2022-09-07T10:20:16.377Z,36.30
2022-09-07T10:22:53.428Z,35.70
2022-09-07T10:25:40.752Z,35.70
2022-09-07T10:28:12.497Z,35.60
2022-09-07T10:31:31.723Z,36.20
2022-09-07T10:34:28.301Z,37.40
2022-09-07T10:37:13.537Z,37.80
2022-09-07T10:40:06.470Z,37.70
2022-09-07T10:46:59.376Z,37.90
2022-09-07T10:50:22.387Z,38.80
2022-09-07T10:53:40.289Z,38.60
2022-09-07T10:56:30.647Z,36.80
2022-09-07T10:59:23.075Z,35.80
2022-09-07T11:02:27.351Z,33.30
2022-09-07T11:05:57.131Z,31.90
2022-09-07T11:09:26.865Z,34.00
2022-09-07T11:12:14.939Z,36.10
2022-09-07T11:14:54.054Z,33.80
2022-09-07T11:17:29.068Z,32.30
2022-09-07T11:20:23.951Z,31.50
2022-09-07T11:23:06.672Z,30.80
2022-09-07T11:26:17.406Z,30.40
2022-09-07T11:29:35.963Z,29.90
2022-09-07T11:32:20.459Z,29.20
2022-09-07T11:35:16.403Z,28.20
2022-09-07T11:37:59.456Z,28.70
2022-09-07T11:40:58.501Z,32.70
2022-09-07T11:43:36.910Z,35.60
2022-09-07T11:46:32.496Z,37.20
2022-09-07T11:48:59.778Z,39.40
2022-09-07T11:52:08.743Z,41.20
2022-09-07T11:55:20.460Z,41.30
2022-09-07T11:58:49.127Z,38.70
2022-09-07T12:02:11.278Z,38.70
2022-09-07T12:05:20.535Z,37.60
2022-09-07T12:08:05.060Z,36.30
2022-09-07T12:11:18.175Z,36.20
2022-09-07T12:14:31.747Z,36.60
2022-09-07T12:17:30.948Z,34.10
2022-09-07T12:20:39.351Z,32.40
2022-09-07T12:23:16.484Z,33.00
2022-09-07T12:25:52.207Z,36.00
2022-09-07T12:28:25.142Z,37.20
2022-09-07T12:31:12.666Z,37.60
2022-09-07T12:33:40.940Z,37.40
2022-09-07T12:36:28.075Z,37.90
2022-09-07T12:39:28.847Z,39.50
2022-09-07T12:42:32.957Z,40.80
2022-09-07T12:45:28.798Z,42.10
2022-09-07T12:48:04.342Z,41.50
2022-09-07T12:50:59.941Z,38.80
2022-09-07T12:54:35.644Z,35.30
2022-09-07T12:57:33.516Z,33.00
2022-09-07T13:01:12.343Z,31.50
2022-09-07T13:04:04.193Z,30.80
2022-09-07T13:07:16.477Z,31.60
2022-09-07T13:10:04.276Z,32.00
2022-09-07T13:12:54.236Z,34.60
2022-09-07T13:15:48.916Z,37.10
2022-09-07T13:18:28.481Z,34.90
2022-09-07T13:21:07.364Z,33.60
2022-09-07T13:24:48.471Z,34.00
2022-09-07T13:27:11.332Z,34.90
2022-09-07T13:29:41.610Z,33.30
2022-09-07T13:35:26.183Z,35.60
2022-09-07T13:38:02.629Z,37.90
2022-09-07T13:40:45.098Z,36.50
2022-09-07T13:43:24.929Z,35.90
2022-09-07T13:45:54.542Z,35.50
2022-09-07T13:48:51.230Z,34.10
2022-09-07T13:51:41.774Z,33.20
2022-09-07T13:54:38.842Z,32.10
2022-09-07T13:57:53.517Z,31.50
2022-09-07T14:00:20.558Z,31.80
2022-09-07T14:02:56.518Z,34.00
2022-09-07T14:05:24.219Z,37.10
2022-09-07T14:07:51.210Z,37.60
2022-09-07T14:10:25.216Z,36.60
2022-09-07T14:13:12.474Z,38.20
2022-09-07T14:15:45.762Z,39.60
2022-09-07T14:18:17.922Z,40.90
2022-09-07T14:20:49.621Z,41.60
2022-09-07T14:23:30.543Z,40.50
2022-09-07T14:26:22.921Z,40.00
2022-09-07T14:28:55.438Z,38.90
2022-09-07T14:31:26.043Z,38.70
2022-09-07T14:34:00.350Z,38.50
2022-09-07T14:36:44.564Z,36.50
2022-09-07T14:39:16.504Z,36.80
2022-09-07T14:41:44.886Z,36.90
2022-09-07T14:44:36.639Z,37.60
2022-09-07T14:47:29.768Z,35.70
2022-09-07T14:50:06.774Z,35.90
2022-09-07T14:53:33.154Z,36.60
2022-09-07T14:55:42.365Z,35.70
2022-09-07T14:58:15.066Z,34.00
2022-09-07T15:01:37.267Z,34.20
2022-09-07T15:04:02.621Z,34.10
2022-09-07T15:09:38.279Z,32.80
2022-09-07T15:12:30.002Z,31.50
2022-09-07T15:15:26.945Z,30.70
2022-09-07T15:18:03.103Z,30.40
2022-09-07T15:20:44.928Z,29.90
2022-09-07T15:23:20.071Z,29.00
2022-09-07T15:25:53.614Z,28.40
2022-09-07T15:34:19.875Z,29.50
2022-09-07T15:36:50.955Z,30.10
2022-09-07T15:39:25.248Z,29.90
2022-09-07T15:41:52.758Z,30.00
2022-09-07T15:44:24.923Z,31.30
2022-09-07T15:49:47.378Z,33.50
2022-09-07T15:52:17.510Z,34.10
2022-09-07T15:54:44.490Z,34.40
2022-09-07T15:59:58.626Z,34.40
2022-09-07T16:05:13.296Z,34.40
2022-09-07T16:10:31.076Z,33.50
2022-09-07T16:13:01.166Z,33.80
2022-09-07T16:15:29.108Z,33.20
2022-09-07T16:17:56.077Z,32.70
2022-09-07T16:20:23.068Z,32.70
2022-09-07T16:25:38.121Z,33.20
2022-09-07T16:28:06.086Z,32.70
2022-09-07T16:30:33.603Z,32.90
2022-09-07T16:33:00.571Z,33.00
2022-09-07T16:35:27.464Z,33.10
2022-09-07T16:40:41.978Z,32.40
2022-09-07T16:43:09.804Z,31.60
2022-09-07T16:48:24.053Z,30.90
2022-09-07T16:51:00.396Z,30.50
2022-09-07T16:53:35.837Z,30.10
2022-09-07T16:56:08.465Z,29.50
2022-09-07T16:58:41.041Z,29.10
2022-09-07T17:01:13.404Z,28.70
2022-09-07T17:03:41.525Z,28.30
2022-09-07T17:06:13.233Z,27.90
2022-09-07T17:08:42.172Z,27.50
2022-09-07T17:11:17.589Z,27.10
2022-09-07T17:13:46.537Z,26.70
2022-09-07T17:16:19.778Z,26.30
2022-09-07T17:21:39.518Z,25.80
2022-09-07T17:24:10.457Z,25.40
2022-09-07T17:26:38.358Z,25.30
2022-09-07T17:29:07.085Z,25.10
2022-09-07T17:34:25.352Z,24.60
2022-09-07T17:36:52.207Z,24.30
2022-09-07T17:39:19.656Z,24.00
2022-09-07T17:41:54.289Z,23.80
2022-09-07T17:44:23.143Z,23.60
2022-09-07T17:46:50.733Z,23.40
2022-09-07T17:49:18.120Z,23.30
2022-09-07T17:51:46.454Z,23.10
2022-09-07T17:54:17.400Z,23.00
2022-09-07T17:56:45.845Z,22.80
2022-09-07T18:02:00.884Z,22.50
2022-09-07T18:04:28.741Z,22.30
2022-09-07T18:06:56.087Z,22.20
2022-09-07T18:09:23.438Z,22.10
2022-09-07T18:11:50.830Z,22.00
2022-09-07T18:14:19.431Z,21.80
2022-09-07T18:16:49.999Z,21.70
2022-09-07T18:19:18.835Z,21.60
2022-09-07T18:21:49.493Z,21.50
2022-09-07T18:24:24.025Z,21.30
2022-09-07T18:26:53.854Z,21.20
2022-09-07T18:29:30.103Z,21.10
2022-09-07T18:32:00.725Z,21.00
2022-09-07T18:34:28.901Z,21.00
2022-09-07T18:36:58.026Z,21.00
2022-09-07T18:39:26.916Z,21.00
2022-09-07T18:41:55.249Z,21.10
2022-09-07T18:47:14.313Z,21.10
2022-09-07T18:49:44.590Z,21.10
2022-09-07T18:54:59.390Z,21.10
2022-09-07T18:57:26.376Z,21.20
2022-09-07T18:59:53.518Z,21.20
2022-09-07T19:02:20.552Z,21.20
2022-09-07T19:07:34.249Z,21.30
2022-09-07T19:10:04.217Z,21.30
2022-09-07T19:12:31.036Z,21.20
2022-09-07T19:14:57.865Z,21.20
2022-09-07T19:17:25.253Z,21.10
2022-09-07T19:19:52.759Z,20.90
2022-09-07T19:22:19.605Z,20.80
2022-09-07T19:24:46.807Z,20.70
2022-09-07T19:27:13.788Z,20.60
2022-09-07T19:29:40.609Z,20.50
2022-09-07T19:32:08.123Z,20.40
2022-09-07T19:34:42.447Z,20.40
2022-09-07T19:37:13.041Z,20.40
2022-09-07T19:39:39.967Z,20.30
2022-09-07T19:42:07.602Z,20.20
2022-09-07T19:44:34.966Z,20.20
2022-09-07T19:47:02.083Z,20.20
2022-09-07T19:49:30.361Z,20.20
2022-09-07T19:51:57.299Z,20.10
2022-09-07T19:54:24.630Z,20.10
2022-09-07T19:56:51.469Z,20.10
2022-09-07T19:59:19.455Z,20.10
2022-09-07T20:01:48.166Z,20.00
2022-09-07T20:04:20.563Z,19.90
2022-09-07T20:06:50.444Z,19.80
2022-09-07T20:09:20.133Z,19.70
2022-09-07T20:11:48.051Z,19.80
2022-09-07T20:14:16.895Z,19.80
2022-09-07T20:16:44.328Z,19.80
2022-09-07T20:19:17.227Z,19.90
2022-09-07T20:21:44.170Z,19.90
2022-09-07T20:24:13.168Z,19.90
2022-09-07T20:26:40.245Z,19.90
2022-09-07T20:31:55.446Z,19.90
2022-09-07T20:34:22.382Z,20.00
2022-09-07T20:36:50.394Z,20.00
2022-09-07T20:39:18.205Z,20.10
2022-09-07T20:41:45.330Z,20.20
2022-09-07T20:44:12.564Z,20.20
2022-09-07T20:46:39.788Z,20.20
2022-09-07T20:49:07.152Z,20.10
2022-09-07T20:51:34.120Z,20.00
2022-09-07T20:54:01.268Z,20.00
2022-09-07T20:56:29.324Z,20.00
2022-09-07T20:59:02.348Z,20.00
2022-09-07T21:01:32.104Z,20.10
2022-09-07T21:04:01.426Z,20.10
2022-09-07T21:06:31.536Z,20.20
2022-09-07T21:08:59.694Z,20.20
2022-09-07T21:11:34.692Z,20.30
2022-09-07T21:14:08.087Z,20.30
2022-09-07T21:16:36.983Z,20.20
2022-09-07T21:19:08.984Z,20.20
2022-09-07T21:21:41.024Z,20.20
2022-09-07T21:24:21.924Z,20.10
2022-09-07T21:26:50.968Z,20.10
2022-09-07T21:29:23.550Z,20.00
2022-09-07T21:31:54.011Z,20.00
2022-09-07T21:34:22.112Z,20.00
2022-09-07T21:36:49.460Z,20.10
2022-09-07T21:39:16.637Z,20.10
2022-09-07T21:41:44.960Z,20.00
2022-09-07T21:44:15.480Z,19.80
2022-09-07T21:46:44.626Z,19.70
2022-09-07T21:49:12.126Z,19.60
2022-09-07T21:51:39.377Z,19.50
2022-09-07T21:54:07.037Z,19.50
2022-09-07T21:56:33.968Z,19.20
2022-09-07T21:59:02.558Z,18.70
2022-09-07T22:01:31.971Z,18.20
2022-09-07T22:04:06.758Z,17.90
2022-09-07T22:06:35.287Z,17.70
2022-09-07T22:09:03.880Z,17.60
2022-09-07T22:11:31.707Z,17.50
2022-09-07T22:14:03.936Z,17.40
2022-09-07T22:16:34.425Z,17.40
2022-09-07T22:19:01.596Z,17.30
2022-09-07T22:21:30.540Z,17.40
2022-09-07T22:24:03.197Z,17.40
2022-09-07T22:26:37.462Z,17.40
2022-09-07T22:29:08.369Z,17.40
2022-09-07T22:31:38.338Z,17.50
2022-09-07T22:34:09.158Z,17.50
2022-09-07T22:36:45.297Z,17.50
2022-09-07T22:39:18.729Z,17.60
2022-09-07T22:41:47.366Z,17.60
2022-09-07T22:44:18.252Z,17.50
2022-09-07T22:46:47.510Z,17.50
2022-09-07T22:49:17.359Z,17.30
2022-09-07T22:51:45.506Z,17.20
2022-09-07T22:54:13.181Z,17.00
2022-09-07T22:56:40.977Z,17.10
2022-09-07T22:59:10.167Z,17.10
2022-09-07T23:01:38.385Z,17.10
2022-09-07T23:04:06.998Z,17.10
2022-09-07T23:06:39.040Z,17.00
2022-09-07T23:09:14.482Z,17.00
2022-09-07T23:11:42.190Z,17.00
2022-09-07T23:14:20.270Z,17.10
2022-09-07T23:16:47.170Z,17.00
2022-09-07T23:19:17.440Z,17.00
2022-09-07T23:21:45.117Z,16.90
2022-09-07T23:24:17.029Z,16.80
2022-09-07T23:26:46.482Z,16.70
2022-09-07T23:29:15.439Z,16.70
2022-09-07T23:31:44.722Z,16.70
2022-09-07T23:34:11.682Z,16.70
2022-09-07T23:36:38.674Z,16.70
2022-09-07T23:39:05.750Z,16.80
2022-09-07T23:41:32.714Z,16.80
2022-09-07T23:44:00.354Z,16.80
2022-09-07T23:46:27.344Z,16.70
2022-09-07T23:48:54.291Z,16.70
2022-09-07T23:51:24.271Z,16.70
2022-09-07T23:53:52.878Z,16.80
2022-09-07T23:56:21.587Z,16.80
2022-09-07T23:58:48.635Z,16.80
